sensor_id;sensor_type;location;lat;lon;timestamp;P1;durP1;ratioP1;P2;durP2;ratioP2
31126;SDS011;17775;57.948;12.514;2023-04-06T00:00:48;4.03;;;2.25;;
31126;SDS011;17775;57.948;12.514;2023-04-06T00:03:15;3.75;;;2.28;;
31126;SDS011;17775;57.948;12.514;2023-04-06T00:05:42;5.55;;;2.38;;
31126;SDS011;17775;57.948;12.514;2023-04-06T00:08:08;5.55;;;2.15;;
31126;SDS011;17775;57.948;12.514;2023-04-06T00:10:35;4.07;;;2.35;;
31126;SDS011;17775;57.948;12.514;2023-04-06T00:13:01;5.22;;;2.47;;
31126;SDS011;17775;57.948;12.514;2023-04-06T00:15:28;4.15;;;2.50;;
31126;SDS011;17775;57.948;12.514;2023-04-06T00:17:55;6.28;;;2.60;;
31126;SDS011;17775;57.948;12.514;2023-04-06T00:20:21;6.05;;;3.33;;
31126;SDS011;17775;57.948;12.514;2023-04-06T00:22:48;4.30;;;2.10;;
31126;SDS011;17775;57.948;12.514;2023-04-06T00:25:14;4.65;;;2.30;;
31126;SDS011;17775;57.948;12.514;2023-04-06T00:27:41;5.55;;;2.35;;
31126;SDS011;17775;57.948;12.514;2023-04-06T00:30:08;6.20;;;2.42;;
31126;SDS011;17775;57.948;12.514;2023-04-06T00:32:38;4.00;;;2.38;;
31126;SDS011;17775;57.948;12.514;2023-04-06T00:35:04;4.53;;;2.47;;
31126;SDS011;17775;57.948;12.514;2023-04-06T00:37:31;5.82;;;2.78;;
31126;SDS011;17775;57.948;12.514;2023-04-06T00:39:58;4.63;;;2.80;;
31126;SDS011;17775;57.948;12.514;2023-04-06T00:42:24;5.00;;;2.78;;
31126;SDS011;17775;57.948;12.514;2023-04-06T00:44:56;4.07;;;2.47;;
31126;SDS011;17775;57.948;12.514;2023-04-06T00:47:23;5.35;;;2.78;;
31126;SDS011;17775;57.948;12.514;2023-04-06T00:49:51;5.15;;;2.65;;
31126;SDS011;17775;57.948;12.514;2023-04-06T00:52:18;4.63;;;2.40;;
31126;SDS011;17775;57.948;12.514;2023-04-06T00:54:45;5.15;;;2.47;;
31126;SDS011;17775;57.948;12.514;2023-04-06T00:57:12;4.85;;;2.67;;
31126;SDS011;17775;57.948;12.514;2023-04-06T00:59:39;4.55;;;2.65;;
31126;SDS011;17775;57.948;12.514;2023-04-06T01:02:06;4.95;;;3.03;;
31126;SDS011;17775;57.948;12.514;2023-04-06T01:04:36;7.65;;;2.70;;
31126;SDS011;17775;57.948;12.514;2023-04-06T01:07:02;4.45;;;2.85;;
31126;SDS011;17775;57.948;12.514;2023-04-06T01:09:29;4.88;;;2.80;;
31126;SDS011;17775;57.948;12.514;2023-04-06T01:11:56;4.63;;;2.72;;
31126;SDS011;17775;57.948;12.514;2023-04-06T01:14:23;5.88;;;2.90;;
31126;SDS011;17775;57.948;12.514;2023-04-06T01:16:50;6.68;;;2.63;;
31126;SDS011;17775;57.948;12.514;2023-04-06T01:19:17;5.00;;;2.67;;
31126;SDS011;17775;57.948;12.514;2023-04-06T01:21:46;5.82;;;3.17;;
31126;SDS011;17775;57.948;12.514;2023-04-06T01:24:12;5.03;;;2.80;;
31126;SDS011;17775;57.948;12.514;2023-04-06T01:26:39;6.72;;;3.03;;
31126;SDS011;17775;57.948;12.514;2023-04-06T01:29:06;5.05;;;2.80;;
31126;SDS011;17775;57.948;12.514;2023-04-06T01:31:33;5.75;;;3.20;;
31126;SDS011;17775;57.948;12.514;2023-04-06T01:33:59;5.55;;;2.72;;
31126;SDS011;17775;57.948;12.514;2023-04-06T01:36:26;5.63;;;3.03;;
31126;SDS011;17775;57.948;12.514;2023-04-06T01:38:53;6.93;;;3.45;;
31126;SDS011;17775;57.948;12.514;2023-04-06T01:41:21;5.57;;;3.00;;
31126;SDS011;17775;57.948;12.514;2023-04-06T01:43:48;5.00;;;3.20;;
31126;SDS011;17775;57.948;12.514;2023-04-06T01:46:15;6.93;;;3.33;;
31126;SDS011;17775;57.948;12.514;2023-04-06T01:48:42;5.97;;;3.25;;
31126;SDS011;17775;57.948;12.514;2023-04-06T01:51:08;6.90;;;3.92;;
31126;SDS011;17775;57.948;12.514;2023-04-06T01:53:35;7.80;;;3.53;;
31126;SDS011;17775;57.948;12.514;2023-04-06T01:56:01;6.00;;;3.33;;
31126;SDS011;17775;57.948;12.514;2023-04-06T01:58:28;5.60;;;2.92;;
31126;SDS011;17775;57.948;12.514;2023-04-06T02:00:54;6.05;;;3.53;;
31126;SDS011;17775;57.948;12.514;2023-04-06T02:03:21;4.95;;;2.85;;
31126;SDS011;17775;57.948;12.514;2023-04-06T02:05:48;5.28;;;3.30;;
31126;SDS011;17775;57.948;12.514;2023-04-06T02:08:14;5.22;;;2.72;;
31126;SDS011;17775;57.948;12.514;2023-04-06T02:10:41;4.78;;;2.65;;
31126;SDS011;17775;57.948;12.514;2023-04-06T02:13:08;5.70;;;3.38;;
31126;SDS011;17775;57.948;12.514;2023-04-06T02:15:34;6.90;;;3.50;;
31126;SDS011;17775;57.948;12.514;2023-04-06T02:18:01;4.97;;;3.13;;
31126;SDS011;17775;57.948;12.514;2023-04-06T02:20:27;4.97;;;3.75;;
31126;SDS011;17775;57.948;12.514;2023-04-06T02:22:56;5.25;;;3.47;;
31126;SDS011;17775;57.948;12.514;2023-04-06T02:25:22;6.57;;;3.55;;
31126;SDS011;17775;57.948;12.514;2023-04-06T02:27:49;5.90;;;3.00;;
31126;SDS011;17775;57.948;12.514;2023-04-06T02:30:15;5.93;;;3.40;;
31126;SDS011;17775;57.948;12.514;2023-04-06T02:32:42;5.03;;;3.15;;
31126;SDS011;17775;57.948;12.514;2023-04-06T02:35:09;6.50;;;3.38;;
31126;SDS011;17775;57.948;12.514;2023-04-06T02:37:37;5.95;;;3.08;;
31126;SDS011;17775;57.948;12.514;2023-04-06T02:40:04;6.50;;;3.17;;
31126;SDS011;17775;57.948;12.514;2023-04-06T02:42:30;5.20;;;3.38;;
31126;SDS011;17775;57.948;12.514;2023-04-06T02:44:57;5.38;;;3.20;;
31126;SDS011;17775;57.948;12.514;2023-04-06T02:47:23;7.75;;;3.10;;
31126;SDS011;17775;57.948;12.514;2023-04-06T02:49:50;5.90;;;3.25;;
31126;SDS011;17775;57.948;12.514;2023-04-06T02:52:16;7.38;;;3.20;;
31126;SDS011;17775;57.948;12.514;2023-04-06T02:54:44;5.85;;;3.30;;
31126;SDS011;17775;57.948;12.514;2023-04-06T02:57:10;5.95;;;3.25;;
31126;SDS011;17775;57.948;12.514;2023-04-06T02:59:39;4.60;;;2.83;;
31126;SDS011;17775;57.948;12.514;2023-04-06T03:02:08;6.90;;;3.65;;
31126;SDS011;17775;57.948;12.514;2023-04-06T03:04:35;5.82;;;3.80;;
31126;SDS011;17775;57.948;12.514;2023-04-06T03:07:01;8.48;;;3.20;;
31126;SDS011;17775;57.948;12.514;2023-04-06T03:09:28;6.97;;;3.47;;
31126;SDS011;17775;57.948;12.514;2023-04-06T03:11:54;4.80;;;3.03;;
31126;SDS011;17775;57.948;12.514;2023-04-06T03:14:21;4.88;;;3.08;;
31126;SDS011;17775;57.948;12.514;2023-04-06T03:16:48;5.80;;;3.55;;
31126;SDS011;17775;57.948;12.514;2023-04-06T03:19:15;5.20;;;2.97;;
31126;SDS011;17775;57.948;12.514;2023-04-06T03:21:41;6.03;;;3.53;;
31126;SDS011;17775;57.948;12.514;2023-04-06T03:24:08;4.68;;;2.95;;
31126;SDS011;17775;57.948;12.514;2023-04-06T03:26:34;5.25;;;3.28;;
31126;SDS011;17775;57.948;12.514;2023-04-06T03:29:01;5.38;;;2.90;;
31126;SDS011;17775;57.948;12.514;2023-04-06T03:31:27;6.28;;;2.97;;
31126;SDS011;17775;57.948;12.514;2023-04-06T03:33:54;7.65;;;3.45;;
31126;SDS011;17775;57.948;12.514;2023-04-06T03:36:21;5.47;;;3.13;;
31126;SDS011;17775;57.948;12.514;2023-04-06T03:38:47;5.38;;;3.17;;
31126;SDS011;17775;57.948;12.514;2023-04-06T03:41:14;6.25;;;3.10;;
31126;SDS011;17775;57.948;12.514;2023-04-06T03:43:41;5.55;;;3.08;;
31126;SDS011;17775;57.948;12.514;2023-04-06T03:46:07;7.20;;;3.17;;
31126;SDS011;17775;57.948;12.514;2023-04-06T03:48:34;6.05;;;2.90;;
31126;SDS011;17775;57.948;12.514;2023-04-06T03:51:00;5.28;;;3.40;;
31126;SDS011;17775;57.948;12.514;2023-04-06T03:53:27;5.60;;;3.28;;
31126;SDS011;17775;57.948;12.514;2023-04-06T03:55:56;5.43;;;2.97;;
31126;SDS011;17775;57.948;12.514;2023-04-06T03:58:23;4.45;;;3.00;;
31126;SDS011;17775;57.948;12.514;2023-04-06T04:00:49;5.53;;;3.33;;
31126;SDS011;17775;57.948;12.514;2023-04-06T04:03:16;4.82;;;3.30;;
31126;SDS011;17775;57.948;12.514;2023-04-06T04:05:43;5.50;;;3.08;;
31126;SDS011;17775;57.948;12.514;2023-04-06T04:08:09;5.78;;;3.03;;
31126;SDS011;17775;57.948;12.514;2023-04-06T04:10:36;4.75;;;3.13;;
31126;SDS011;17775;57.948;12.514;2023-04-06T04:13:02;6.75;;;3.55;;
31126;SDS011;17775;57.948;12.514;2023-04-06T04:15:29;6.07;;;3.42;;
31126;SDS011;17775;57.948;12.514;2023-04-06T04:17:55;6.30;;;3.80;;
31126;SDS011;17775;57.948;12.514;2023-04-06T04:20:22;5.65;;;3.20;;
31126;SDS011;17775;57.948;12.514;2023-04-06T04:22:48;6.00;;;3.58;;
31126;SDS011;17775;57.948;12.514;2023-04-06T04:25:15;5.65;;;3.60;;
31126;SDS011;17775;57.948;12.514;2023-04-06T04:27:41;5.03;;;3.00;;
31126;SDS011;17775;57.948;12.514;2023-04-06T04:30:08;5.32;;;3.63;;
31126;SDS011;17775;57.948;12.514;2023-04-06T04:32:35;6.05;;;3.70;;
31126;SDS011;17775;57.948;12.514;2023-04-06T04:35:01;6.10;;;3.50;;
31126;SDS011;17775;57.948;12.514;2023-04-06T04:37:28;6.28;;;3.30;;
31126;SDS011;17775;57.948;12.514;2023-04-06T04:39:54;5.40;;;3.70;;
31126;SDS011;17775;57.948;12.514;2023-04-06T04:42:21;5.15;;;3.60;;
31126;SDS011;17775;57.948;12.514;2023-04-06T04:44:48;7.63;;;4.00;;
31126;SDS011;17775;57.948;12.514;2023-04-06T04:47:14;5.93;;;3.70;;
31126;SDS011;17775;57.948;12.514;2023-04-06T04:49:41;6.35;;;3.75;;
31126;SDS011;17775;57.948;12.514;2023-04-06T04:52:07;5.78;;;3.30;;
31126;SDS011;17775;57.948;12.514;2023-04-06T04:54:36;6.32;;;3.95;;
31126;SDS011;17775;57.948;12.514;2023-04-06T04:57:02;7.28;;;3.95;;
31126;SDS011;17775;57.948;12.514;2023-04-06T04:59:29;7.85;;;4.15;;
31126;SDS011;17775;57.948;12.514;2023-04-06T05:01:56;5.97;;;3.53;;
31126;SDS011;17775;57.948;12.514;2023-04-06T05:04:22;6.57;;;3.47;;
31126;SDS011;17775;57.948;12.514;2023-04-06T05:06:49;6.93;;;3.40;;
31126;SDS011;17775;57.948;12.514;2023-04-06T05:09:16;5.88;;;3.78;;
31126;SDS011;17775;57.948;12.514;2023-04-06T05:11:43;7.07;;;3.33;;
31126;SDS011;17775;57.948;12.514;2023-04-06T05:14:10;5.20;;;3.20;;
31126;SDS011;17775;57.948;12.514;2023-04-06T05:16:37;5.93;;;3.45;;
31126;SDS011;17775;57.948;12.514;2023-04-06T05:19:03;6.40;;;3.88;;
31126;SDS011;17775;57.948;12.514;2023-04-06T05:21:30;7.03;;;3.70;;
31126;SDS011;17775;57.948;12.514;2023-04-06T05:23:56;5.43;;;3.47;;
31126;SDS011;17775;57.948;12.514;2023-04-06T05:26:23;6.50;;;3.80;;
31126;SDS011;17775;57.948;12.514;2023-04-06T05:28:50;5.28;;;3.17;;
31126;SDS011;17775;57.948;12.514;2023-04-06T05:31:17;5.45;;;3.20;;
31126;SDS011;17775;57.948;12.514;2023-04-06T05:33:43;5.25;;;3.25;;
31126;SDS011;17775;57.948;12.514;2023-04-06T05:36:10;5.07;;;3.17;;
31126;SDS011;17775;57.948;12.514;2023-04-06T05:38:40;5.97;;;3.60;;
31126;SDS011;17775;57.948;12.514;2023-04-06T05:41:06;4.93;;;3.25;;
31126;SDS011;17775;57.948;12.514;2023-04-06T05:43:33;5.80;;;3.47;;
31126;SDS011;17775;57.948;12.514;2023-04-06T05:45:59;6.47;;;3.30;;
31126;SDS011;17775;57.948;12.514;2023-04-06T05:48:26;5.43;;;3.33;;
31126;SDS011;17775;57.948;12.514;2023-04-06T05:50:55;5.38;;;3.00;;
31126;SDS011;17775;57.948;12.514;2023-04-06T05:53:21;5.07;;;3.00;;
31126;SDS011;17775;57.948;12.514;2023-04-06T05:55:48;5.03;;;3.10;;
31126;SDS011;17775;57.948;12.514;2023-04-06T05:58:14;5.65;;;2.70;;
31126;SDS011;17775;57.948;12.514;2023-04-06T06:00:41;5.40;;;3.08;;
31126;SDS011;17775;57.948;12.514;2023-04-06T06:03:09;5.35;;;2.78;;
31126;SDS011;17775;57.948;12.514;2023-04-06T06:05:36;6.30;;;3.70;;
31126;SDS011;17775;57.948;12.514;2023-04-06T06:08:04;4.50;;;2.63;;
31126;SDS011;17775;57.948;12.514;2023-04-06T06:10:30;6.40;;;2.92;;
31126;SDS011;17775;57.948;12.514;2023-04-06T06:12:57;4.85;;;2.30;;
31126;SDS011;17775;57.948;12.514;2023-04-06T06:15:23;5.03;;;2.50;;
31126;SDS011;17775;57.948;12.514;2023-04-06T06:17:50;6.57;;;3.38;;
31126;SDS011;17775;57.948;12.514;2023-04-06T06:20:16;4.60;;;3.03;;
31126;SDS011;17775;57.948;12.514;2023-04-06T06:22:43;5.53;;;3.47;;
31126;SDS011;17775;57.948;12.514;2023-04-06T06:25:09;5.82;;;3.63;;
31126;SDS011;17775;57.948;12.514;2023-04-06T06:27:36;6.50;;;3.85;;
31126;SDS011;17775;57.948;12.514;2023-04-06T06:30:02;6.68;;;3.72;;
31126;SDS011;17775;57.948;12.514;2023-04-06T06:32:29;5.82;;;3.17;;
31126;SDS011;17775;57.948;12.514;2023-04-06T06:34:56;7.18;;;3.47;;
31126;SDS011;17775;57.948;12.514;2023-04-06T06:37:22;5.55;;;3.70;;
31126;SDS011;17775;57.948;12.514;2023-04-06T06:39:48;7.22;;;3.40;;
31126;SDS011;17775;57.948;12.514;2023-04-06T06:42:15;6.38;;;3.65;;
31126;SDS011;17775;57.948;12.514;2023-04-06T06:44:41;7.68;;;4.20;;
31126;SDS011;17775;57.948;12.514;2023-04-06T06:47:08;5.20;;;3.10;;
31126;SDS011;17775;57.948;12.514;2023-04-06T06:49:37;8.75;;;3.60;;
31126;SDS011;17775;57.948;12.514;2023-04-06T06:52:04;7.30;;;3.35;;
31126;SDS011;17775;57.948;12.514;2023-04-06T06:54:30;5.72;;;3.53;;
31126;SDS011;17775;57.948;12.514;2023-04-06T06:56:57;5.60;;;3.28;;
31126;SDS011;17775;57.948;12.514;2023-04-06T06:59:23;6.43;;;3.08;;
31126;SDS011;17775;57.948;12.514;2023-04-06T07:01:50;6.63;;;3.28;;
31126;SDS011;17775;57.948;12.514;2023-04-06T07:04:16;8.90;;;4.00;;
31126;SDS011;17775;57.948;12.514;2023-04-06T07:06:43;6.70;;;3.88;;
31126;SDS011;17775;57.948;12.514;2023-04-06T07:09:12;5.82;;;2.28;;
31126;SDS011;17775;57.948;12.514;2023-04-06T07:11:38;4.05;;;2.28;;
31126;SDS011;17775;57.948;12.514;2023-04-06T07:14:05;3.72;;;2.17;;
31126;SDS011;17775;57.948;12.514;2023-04-06T07:16:31;4.93;;;2.13;;
31126;SDS011;17775;57.948;12.514;2023-04-06T07:18:58;4.03;;;2.33;;
31126;SDS011;17775;57.948;12.514;2023-04-06T07:21:24;4.18;;;1.80;;
31126;SDS011;17775;57.948;12.514;2023-04-06T07:23:51;4.22;;;2.10;;
31126;SDS011;17775;57.948;12.514;2023-04-06T07:26:17;4.78;;;2.65;;
31126;SDS011;17775;57.948;12.514;2023-04-06T07:28:44;4.20;;;2.10;;
31126;SDS011;17775;57.948;12.514;2023-04-06T07:31:11;3.28;;;1.50;;
31126;SDS011;17775;57.948;12.514;2023-04-06T07:33:37;2.80;;;1.60;;
31126;SDS011;17775;57.948;12.514;2023-04-06T07:36:04;2.17;;;1.52;;
31126;SDS011;17775;57.948;12.514;2023-04-06T07:38:30;5.07;;;1.92;;
31126;SDS011;17775;57.948;12.514;2023-04-06T07:40:57;3.35;;;1.85;;
31126;SDS011;17775;57.948;12.514;2023-04-06T07:43:24;4.20;;;2.00;;
31126;SDS011;17775;57.948;12.514;2023-04-06T07:45:50;4.75;;;1.98;;
31126;SDS011;17775;57.948;12.514;2023-04-06T07:48:17;5.18;;;2.13;;
31126;SDS011;17775;57.948;12.514;2023-04-06T07:50:43;5.75;;;1.80;;
31126;SDS011;17775;57.948;12.514;2023-04-06T07:53:10;3.53;;;1.90;;
31126;SDS011;17775;57.948;12.514;2023-04-06T07:55:37;2.85;;;1.95;;
31126;SDS011;17775;57.948;12.514;2023-04-06T07:58:03;4.85;;;2.05;;
31126;SDS011;17775;57.948;12.514;2023-04-06T08:00:30;3.38;;;2.03;;
31126;SDS011;17775;57.948;12.514;2023-04-06T08:02:56;3.42;;;1.80;;
31126;SDS011;17775;57.948;12.514;2023-04-06T08:05:23;2.22;;;1.50;;
31126;SDS011;17775;57.948;12.514;2023-04-06T08:07:49;3.55;;;1.42;;
31126;SDS011;17775;57.948;12.514;2023-04-06T08:10:16;2.53;;;1.75;;
31126;SDS011;17775;57.948;12.514;2023-04-06T08:12:42;4.32;;;1.73;;
31126;SDS011;17775;57.948;12.514;2023-04-06T08:15:09;4.72;;;1.95;;
31126;SDS011;17775;57.948;12.514;2023-04-06T08:17:35;3.75;;;1.70;;
31126;SDS011;17775;57.948;12.514;2023-04-06T08:20:02;2.08;;;1.33;;
31126;SDS011;17775;57.948;12.514;2023-04-06T08:22:29;3.53;;;1.73;;
31126;SDS011;17775;57.948;12.514;2023-04-06T08:24:56;3.88;;;1.83;;
31126;SDS011;17775;57.948;12.514;2023-04-06T08:27:22;2.78;;;1.67;;
31126;SDS011;17775;57.948;12.514;2023-04-06T08:29:49;2.55;;;1.75;;
31126;SDS011;17775;57.948;12.514;2023-04-06T08:32:16;3.63;;;1.83;;
31126;SDS011;17775;57.948;12.514;2023-04-06T08:34:43;3.75;;;1.15;;
31126;SDS011;17775;57.948;12.514;2023-04-06T08:37:09;2.40;;;1.40;;
31126;SDS011;17775;57.948;12.514;2023-04-06T08:39:36;3.40;;;1.63;;
31126;SDS011;17775;57.948;12.514;2023-04-06T08:42:02;3.30;;;1.60;;
31126;SDS011;17775;57.948;12.514;2023-04-06T08:44:30;2.03;;;1.30;;
31126;SDS011;17775;57.948;12.514;2023-04-06T08:47:01;2.50;;;1.65;;
31126;SDS011;17775;57.948;12.514;2023-04-06T08:49:30;2.35;;;1.60;;
31126;SDS011;17775;57.948;12.514;2023-04-06T08:51:58;2.58;;;1.50;;
31126;SDS011;17775;57.948;12.514;2023-04-06T08:54:25;3.75;;;1.77;;
31126;SDS011;17775;57.948;12.514;2023-04-06T08:56:52;3.03;;;1.40;;
31126;SDS011;17775;57.948;12.514;2023-04-06T08:59:19;3.15;;;1.70;;
31126;SDS011;17775;57.948;12.514;2023-04-06T09:01:46;2.88;;;1.70;;
31126;SDS011;17775;57.948;12.514;2023-04-06T09:04:12;4.57;;;1.40;;
31126;SDS011;17775;57.948;12.514;2023-04-06T09:06:40;3.58;;;1.67;;
31126;SDS011;17775;57.948;12.514;2023-04-06T09:09:07;2.72;;;1.40;;
31126;SDS011;17775;57.948;12.514;2023-04-06T09:11:44;3.22;;;1.67;;
31126;SDS011;17775;57.948;12.514;2023-04-06T09:14:10;2.22;;;1.50;;
31126;SDS011;17775;57.948;12.514;2023-04-06T09:16:43;3.40;;;1.50;;
31126;SDS011;17775;57.948;12.514;2023-04-06T09:19:11;2.60;;;1.50;;
31126;SDS011;17775;57.948;12.514;2023-04-06T09:21:38;2.53;;;1.35;;
31126;SDS011;17775;57.948;12.514;2023-04-06T09:24:06;3.13;;;1.58;;
31126;SDS011;17775;57.948;12.514;2023-04-06T09:26:43;3.45;;;1.50;;
31126;SDS011;17775;57.948;12.514;2023-04-06T09:29:10;2.42;;;1.35;;
31126;SDS011;17775;57.948;12.514;2023-04-06T09:31:36;3.10;;;1.38;;
31126;SDS011;17775;57.948;12.514;2023-04-06T09:34:03;6.50;;;1.67;;
31126;SDS011;17775;57.948;12.514;2023-04-06T09:36:30;2.33;;;1.40;;
31126;SDS011;17775;57.948;12.514;2023-04-06T09:38:58;2.88;;;1.40;;
31126;SDS011;17775;57.948;12.514;2023-04-06T09:41:25;2.15;;;1.30;;
31126;SDS011;17775;57.948;12.514;2023-04-06T09:43:52;3.17;;;1.70;;
31126;SDS011;17775;57.948;12.514;2023-04-06T09:46:27;3.75;;;1.50;;
31126;SDS011;17775;57.948;12.514;2023-04-06T09:48:54;5.55;;;2.13;;
31126;SDS011;17775;57.948;12.514;2023-04-06T09:51:20;3.97;;;2.40;;
31126;SDS011;17775;57.948;12.514;2023-04-06T09:53:51;6.65;;;3.05;;
31126;SDS011;17775;57.948;12.514;2023-04-06T09:56:19;6.20;;;2.90;;
31126;SDS011;17775;57.948;12.514;2023-04-06T09:58:46;8.57;;;3.72;;
31126;SDS011;17775;57.948;12.514;2023-04-06T10:01:15;6.32;;;3.33;;
31126;SDS011;17775;57.948;12.514;2023-04-06T10:06:14;6.80;;;3.97;;
31126;SDS011;17775;57.948;12.514;2023-04-06T10:08:41;6.13;;;3.97;;
31126;SDS011;17775;57.948;12.514;2023-04-06T10:11:09;8.30;;;3.97;;
31126;SDS011;17775;57.948;12.514;2023-04-06T10:13:37;8.15;;;3.75;;
31126;SDS011;17775;57.948;12.514;2023-04-06T10:16:03;7.13;;;4.50;;
31126;SDS011;17775;57.948;12.514;2023-04-06T10:18:30;8.13;;;4.40;;
31126;SDS011;17775;57.948;12.514;2023-04-06T10:21:06;10.57;;;4.63;;
31126;SDS011;17775;57.948;12.514;2023-04-06T10:23:44;8.95;;;4.93;;
31126;SDS011;17775;57.948;12.514;2023-04-06T10:26:15;8.00;;;4.47;;
31126;SDS011;17775;57.948;12.514;2023-04-06T10:31:09;10.30;;;4.47;;
31126;SDS011;17775;57.948;12.514;2023-04-06T10:33:35;9.40;;;4.65;;
31126;SDS011;17775;57.948;12.514;2023-04-06T10:36:12;9.00;;;4.80;;
31126;SDS011;17775;57.948;12.514;2023-04-06T10:38:41;10.80;;;4.22;;
31126;SDS011;17775;57.948;12.514;2023-04-06T10:41:11;10.63;;;5.78;;
31126;SDS011;17775;57.948;12.514;2023-04-06T10:43:39;9.73;;;4.57;;
31126;SDS011;17775;57.948;12.514;2023-04-06T10:46:06;10.23;;;5.47;;
31126;SDS011;17775;57.948;12.514;2023-04-06T10:48:51;8.82;;;4.68;;
31126;SDS011;17775;57.948;12.514;2023-04-06T10:51:18;9.02;;;4.47;;
31126;SDS011;17775;57.948;12.514;2023-04-06T10:53:45;8.48;;;4.57;;
31126;SDS011;17775;57.948;12.514;2023-04-06T10:56:16;8.88;;;4.82;;
31126;SDS011;17775;57.948;12.514;2023-04-06T10:58:46;10.80;;;4.50;;
31126;SDS011;17775;57.948;12.514;2023-04-06T11:01:16;7.00;;;4.10;;
31126;SDS011;17775;57.948;12.514;2023-04-06T11:03:46;8.20;;;5.20;;
31126;SDS011;17775;57.948;12.514;2023-04-06T11:06:21;5.43;;;3.75;;
31126;SDS011;17775;57.948;12.514;2023-04-06T11:08:47;8.10;;;4.53;;
31126;SDS011;17775;57.948;12.514;2023-04-06T11:11:14;9.07;;;4.10;;
31126;SDS011;17775;57.948;12.514;2023-04-06T11:13:51;7.97;;;3.90;;
31126;SDS011;17775;57.948;12.514;2023-04-06T11:21:14;5.97;;;3.38;;
31126;SDS011;17775;57.948;12.514;2023-04-06T11:23:40;5.43;;;3.25;;
31126;SDS011;17775;57.948;12.514;2023-04-06T11:26:10;6.07;;;3.15;;
31126;SDS011;17775;57.948;12.514;2023-04-06T11:28:37;7.78;;;3.45;;
31126;SDS011;17775;57.948;12.514;2023-04-06T11:31:04;6.72;;;3.08;;
31126;SDS011;17775;57.948;12.514;2023-04-06T11:33:38;6.75;;;3.38;;
31126;SDS011;17775;57.948;12.514;2023-04-06T11:36:04;6.13;;;2.92;;
31126;SDS011;17775;57.948;12.514;2023-04-06T11:38:32;7.97;;;3.40;;
31126;SDS011;17775;57.948;12.514;2023-04-06T11:40:58;6.97;;;2.95;;
31126;SDS011;17775;57.948;12.514;2023-04-06T11:43:28;6.70;;;3.33;;
31126;SDS011;17775;57.948;12.514;2023-04-06T11:46:02;7.57;;;2.75;;
31126;SDS011;17775;57.948;12.514;2023-04-06T11:48:29;4.65;;;2.67;;
31126;SDS011;17775;57.948;12.514;2023-04-06T11:50:57;6.00;;;2.88;;
31126;SDS011;17775;57.948;12.514;2023-04-06T11:53:24;6.25;;;2.25;;
31126;SDS011;17775;57.948;12.514;2023-04-06T11:55:51;4.07;;;2.35;;
31126;SDS011;17775;57.948;12.514;2023-04-06T11:58:17;8.60;;;3.22;;
31126;SDS011;17775;57.948;12.514;2023-04-06T12:00:44;6.28;;;2.10;;
31126;SDS011;17775;57.948;12.514;2023-04-06T12:03:12;5.65;;;2.10;;
31126;SDS011;17775;57.948;12.514;2023-04-06T12:05:39;7.32;;;2.50;;
31126;SDS011;17775;57.948;12.514;2023-04-06T12:08:06;5.13;;;1.85;;
31126;SDS011;17775;57.948;12.514;2023-04-06T12:10:32;5.68;;;1.80;;
31126;SDS011;17775;57.948;12.514;2023-04-06T12:12:59;6.13;;;2.58;;
31126;SDS011;17775;57.948;12.514;2023-04-06T12:15:25;4.13;;;1.85;;
31126;SDS011;17775;57.948;12.514;2023-04-06T12:17:52;3.22;;;1.90;;
31126;SDS011;17775;57.948;12.514;2023-04-06T12:20:18;4.25;;;2.28;;
31126;SDS011;17775;57.948;12.514;2023-04-06T12:22:52;4.78;;;2.20;;
31126;SDS011;17775;57.948;12.514;2023-04-06T12:25:19;4.55;;;2.33;;
31126;SDS011;17775;57.948;12.514;2023-04-06T12:27:45;2.97;;;1.83;;
31126;SDS011;17775;57.948;12.514;2023-04-06T12:30:12;3.80;;;2.20;;
31126;SDS011;17775;57.948;12.514;2023-04-06T12:32:38;4.07;;;2.05;;
31126;SDS011;17775;57.948;12.514;2023-04-06T12:35:06;8.18;;;2.25;;
31126;SDS011;17775;57.948;12.514;2023-04-06T12:37:36;6.88;;;2.72;;
31126;SDS011;17775;57.948;12.514;2023-04-06T12:40:03;3.47;;;1.77;;
31126;SDS011;17775;57.948;12.514;2023-04-06T12:42:30;5.20;;;2.20;;
31126;SDS011;17775;57.948;12.514;2023-04-06T12:44:57;4.35;;;2.03;;
31126;SDS011;17775;57.948;12.514;2023-04-06T12:47:23;3.70;;;1.90;;
31126;SDS011;17775;57.948;12.514;2023-04-06T12:49:50;2.50;;;1.50;;
31126;SDS011;17775;57.948;12.514;2023-04-06T12:52:17;3.38;;;1.80;;
31126;SDS011;17775;57.948;12.514;2023-04-06T12:54:43;4.80;;;1.73;;
31126;SDS011;17775;57.948;12.514;2023-04-06T12:57:11;5.97;;;1.83;;
31126;SDS011;17775;57.948;12.514;2023-04-06T12:59:37;6.45;;;2.22;;
31126;SDS011;17775;57.948;12.514;2023-04-06T13:02:04;2.90;;;1.58;;
31126;SDS011;17775;57.948;12.514;2023-04-06T13:04:31;4.05;;;1.60;;
31126;SDS011;17775;57.948;12.514;2023-04-06T13:06:58;4.32;;;1.70;;
31126;SDS011;17775;57.948;12.514;2023-04-06T13:09:25;4.72;;;1.80;;
31126;SDS011;17775;57.948;12.514;2023-04-06T13:11:51;3.47;;;1.40;;
31126;SDS011;17775;57.948;12.514;2023-04-06T13:14:18;3.53;;;1.80;;
31126;SDS011;17775;57.948;12.514;2023-04-06T13:16:44;5.40;;;1.52;;
31126;SDS011;17775;57.948;12.514;2023-04-06T13:19:11;3.05;;;1.40;;
31126;SDS011;17775;57.948;12.514;2023-04-06T13:21:38;4.03;;;1.40;;
31126;SDS011;17775;57.948;12.514;2023-04-06T13:24:05;4.00;;;1.90;;
31126;SDS011;17775;57.948;12.514;2023-04-06T13:26:31;4.70;;;1.48;;
31126;SDS011;17775;57.948;12.514;2023-04-06T13:29:01;3.45;;;1.50;;
31126;SDS011;17775;57.948;12.514;2023-04-06T13:31:28;5.13;;;1.63;;
31126;SDS011;17775;57.948;12.514;2023-04-06T13:33:55;2.65;;;1.30;;
31126;SDS011;17775;57.948;12.514;2023-04-06T13:36:22;4.25;;;1.35;;
31126;SDS011;17775;57.948;12.514;2023-04-06T13:38:48;2.88;;;1.40;;
31126;SDS011;17775;57.948;12.514;2023-04-06T13:41:22;4.00;;;1.40;;
31126;SDS011;17775;57.948;12.514;2023-04-06T13:43:49;3.08;;;1.30;;
31126;SDS011;17775;57.948;12.514;2023-04-06T13:46:15;4.57;;;1.15;;
31126;SDS011;17775;57.948;12.514;2023-04-06T13:48:43;5.30;;;1.25;;
31126;SDS011;17775;57.948;12.514;2023-04-06T13:51:13;4.95;;;1.33;;
31126;SDS011;17775;57.948;12.514;2023-04-06T13:53:40;4.97;;;2.20;;
31126;SDS011;17775;57.948;12.514;2023-04-06T13:56:07;2.70;;;1.45;;
31126;SDS011;17775;57.948;12.514;2023-04-06T13:58:33;5.63;;;1.48;;
31126;SDS011;17775;57.948;12.514;2023-04-06T14:01:04;5.28;;;1.60;;
31126;SDS011;17775;57.948;12.514;2023-04-06T14:03:32;4.97;;;1.40;;
31126;SDS011;17775;57.948;12.514;2023-04-06T14:05:59;6.82;;;1.58;;
31126;SDS011;17775;57.948;12.514;2023-04-06T14:08:40;2.10;;;1.02;;
31126;SDS011;17775;57.948;12.514;2023-04-06T14:11:10;7.38;;;1.20;;
31126;SDS011;17775;57.948;12.514;2023-04-06T14:13:38;2.55;;;1.33;;
31126;SDS011;17775;57.948;12.514;2023-04-06T14:16:04;4.07;;;1.20;;
31126;SDS011;17775;57.948;12.514;2023-04-06T14:18:31;5.72;;;1.23;;
31126;SDS011;17775;57.948;12.514;2023-04-06T14:20:57;2.50;;;1.20;;
31126;SDS011;17775;57.948;12.514;2023-04-06T14:23:24;3.05;;;1.17;;
31126;SDS011;17775;57.948;12.514;2023-04-06T14:26:01;6.05;;;1.20;;
31126;SDS011;17775;57.948;12.514;2023-04-06T14:28:29;4.95;;;1.35;;
31126;SDS011;17775;57.948;12.514;2023-04-06T14:30:55;3.85;;;1.10;;
31126;SDS011;17775;57.948;12.514;2023-04-06T14:33:22;23.45;;;2.97;;
31126;SDS011;17775;57.948;12.514;2023-04-06T14:35:48;2.45;;;1.20;;
31126;SDS011;17775;57.948;12.514;2023-04-06T14:38:15;2.03;;;1.00;;
31126;SDS011;17775;57.948;12.514;2023-04-06T14:40:41;5.28;;;1.27;;
31126;SDS011;17775;57.948;12.514;2023-04-06T14:43:07;2.25;;;1.20;;